createdAt,value
2022-12-15T00:02:35.537Z,100577.16
2022-12-15T00:05:21.079Z,100577.13
2022-12-15T00:08:07.894Z,100571.38
2022-12-15T00:10:53.773Z,100561.72
2022-12-15T00:13:39.252Z,100564.34
2022-12-15T00:16:25.064Z,100560.53
2022-12-15T00:19:10.343Z,100571.91
2022-12-15T00:21:55.456Z,100573.31
2022-12-15T00:24:42.080Z,100570.31
2022-12-15T00:27:27.604Z,100576.47
2022-12-15T00:30:12.927Z,100574.22
2022-12-15T00:32:58.287Z,100579.81
2022-12-15T00:35:43.648Z,100580.19
2022-12-15T00:38:31.628Z,100574.78
2022-12-15T00:41:00.942Z,100579.31
2022-12-15T00:43:30.206Z,100576.28
2022-12-15T00:46:16.372Z,100583.91
2022-12-15T00:48:45.001Z,100584.69
2022-12-15T00:51:12.695Z,100588.84
2022-12-15T00:53:58.392Z,100594.78
2022-12-15T00:56:45.515Z,100597.19
2022-12-15T00:59:32.483Z,100593.78
2022-12-15T01:02:18.050Z,100585.75
2022-12-15T01:05:03.300Z,100586.09
2022-12-15T01:07:49.871Z,100593.38
2022-12-15T01:10:36.025Z,100589.25
2022-12-15T01:13:23.551Z,100602.88
2022-12-15T01:16:08.929Z,100604.78
2022-12-15T01:18:54.082Z,100605.88
2022-12-15T01:21:24.710Z,100607.03
2022-12-15T01:23:53.127Z,100606.78
2022-12-15T01:26:21.140Z,100615.66
2022-12-15T01:28:50.274Z,100609.72
2022-12-15T01:31:18.051Z,100616.56
2022-12-15T01:33:45.830Z,100623.44
2022-12-15T01:36:14.242Z,100627.19
2022-12-15T01:38:42.692Z,100628.38
2022-12-15T01:41:12.359Z,100624.63
2022-12-15T01:43:41.629Z,100623.13
2022-12-15T01:46:12.616Z,100625.81
2022-12-15T01:48:44.010Z,100623.91
2022-12-15T01:51:17.240Z,100627.28
2022-12-15T01:53:52.282Z,100628.53
2022-12-15T01:56:21.092Z,100629.16
2022-12-15T01:58:50.943Z,100646.66
2022-12-15T02:01:20.165Z,100639.50
2022-12-15T02:03:49.251Z,100644.16
2022-12-15T02:06:18.015Z,100642.16
2022-12-15T02:08:48.431Z,100642.59
2022-12-15T02:11:37.377Z,100642.16
2022-12-15T02:14:07.511Z,100641.78
2022-12-15T02:16:50.490Z,100649.81
2022-12-15T02:19:42.820Z,100642.13
2022-12-15T02:22:25.394Z,100636.19
2022-12-15T02:25:11.396Z,100646.66
2022-12-15T02:27:52.120Z,100647.72
2022-12-15T02:30:32.596Z,100642.41
2022-12-15T02:33:07.703Z,100639.41
2022-12-15T02:35:47.380Z,100637.94
2022-12-15T02:38:15.226Z,100634.22
2022-12-15T02:40:43.054Z,100639.88
2022-12-15T02:43:11.359Z,100630.03
2022-12-15T02:45:52.751Z,100643.75
2022-12-15T02:48:32.137Z,100642.69
2022-12-15T02:51:14.313Z,100642.69
2022-12-15T02:53:56.816Z,100639.97
2022-12-15T02:56:33.533Z,100648.22
2022-12-15T02:59:11.082Z,100646.41
2022-12-15T03:01:44.426Z,100655.44
2022-12-15T03:04:13.820Z,100650.03
2022-12-15T03:06:41.635Z,100650.78
2022-12-15T03:09:09.469Z,100656.81
2022-12-15T03:11:38.148Z,100659.53
2022-12-15T03:14:05.930Z,100668.34
2022-12-15T03:16:33.799Z,100668.31
2022-12-15T03:19:02.963Z,100664.78
2022-12-15T03:21:30.880Z,100661.38
2022-12-15T03:23:58.641Z,100662.84
2022-12-15T03:26:26.420Z,100668.00
2022-12-15T03:28:54.132Z,100669.72
2022-12-15T03:31:21.906Z,100669.50
2022-12-15T03:33:49.745Z,100673.09
2022-12-15T03:36:19.103Z,100672.31
2022-12-15T03:38:46.841Z,100670.44
2022-12-15T03:41:14.541Z,100672.25
2022-12-15T03:43:42.315Z,100673.28
2022-12-15T03:46:10.120Z,100682.94
2022-12-15T03:48:38.084Z,100682.72
2022-12-15T03:51:05.864Z,100677.47
2022-12-15T03:53:35.055Z,100677.16
2022-12-15T03:56:02.824Z,100678.25
2022-12-15T03:58:30.587Z,100674.06
2022-12-15T04:00:58.397Z,100669.25
2022-12-15T04:03:26.272Z,100668.66
2022-12-15T04:05:54.075Z,100675.16
2022-12-15T04:08:26.662Z,100677.47
2022-12-15T04:10:55.826Z,100682.44
2022-12-15T04:13:23.550Z,100685.59
2022-12-15T04:15:51.286Z,100687.28
2022-12-15T04:18:19.151Z,100687.06
2022-12-15T04:20:45.985Z,100682.94
2022-12-15T04:23:18.116Z,100684.63
2022-12-15T04:26:03.324Z,100694.78
2022-12-15T04:28:50.011Z,100689.34
2022-12-15T04:31:37.768Z,100687.97
2022-12-15T04:34:26.595Z,100685.81
2022-12-15T04:37:12.636Z,100684.09
2022-12-15T04:40:00.279Z,100686.13
2022-12-15T04:42:45.695Z,100688.94
2022-12-15T04:45:34.084Z,100684.81
2022-12-15T04:48:19.444Z,100688.66
2022-12-15T04:51:04.878Z,100688.72
2022-12-15T04:53:52.259Z,100689.09
2022-12-15T04:56:37.534Z,100684.53
2022-12-15T04:59:23.899Z,100692.44
2022-12-15T05:02:10.389Z,100695.50
2022-12-15T05:04:55.579Z,100695.63
2022-12-15T05:07:43.200Z,100694.97
2022-12-15T05:10:28.562Z,100683.06
2022-12-15T05:13:13.997Z,100694.94
2022-12-15T05:15:59.598Z,100691.94
2022-12-15T05:18:46.017Z,100696.94
2022-12-15T05:21:31.558Z,100695.38
2022-12-15T05:24:17.089Z,100694.59
2022-12-15T05:27:02.395Z,100696.94
2022-12-15T05:29:47.807Z,100699.22
2022-12-15T05:32:15.604Z,100701.09
2022-12-15T05:34:44.697Z,100707.19
2022-12-15T05:37:12.475Z,100701.88
2022-12-15T05:39:40.222Z,100697.25
2022-12-15T05:42:08.025Z,100703.19
2022-12-15T05:44:35.825Z,100698.75
2022-12-15T05:47:04.917Z,100710.84
2022-12-15T05:49:33.351Z,100704.06
2022-12-15T05:52:02.488Z,100709.38
2022-12-15T05:54:30.287Z,100714.38
2022-12-15T05:56:58.067Z,100725.44
2022-12-15T05:59:25.899Z,100731.50
2022-12-15T06:01:53.729Z,100740.84
2022-12-15T06:04:24.071Z,100747.13
2022-12-15T06:06:51.872Z,100728.53
2022-12-15T06:09:20.971Z,100734.25
2022-12-15T06:11:48.802Z,100743.44
2022-12-15T06:14:16.584Z,100738.63
2022-12-15T06:16:50.291Z,100731.41
2022-12-15T06:19:19.792Z,100735.97
2022-12-15T06:21:47.550Z,100738.97
2022-12-15T06:24:15.334Z,100738.28
2022-12-15T06:26:44.680Z,100739.66
2022-12-15T06:29:14.377Z,100739.56
2022-12-15T06:31:43.681Z,100741.38
2022-12-15T06:34:14.012Z,100746.34
2022-12-15T06:36:42.338Z,100744.03
2022-12-15T06:39:12.783Z,100750.63
2022-12-15T06:41:41.320Z,100742.81
2022-12-15T06:44:14.467Z,100752.84
2022-12-15T06:46:42.892Z,100744.59
2022-12-15T06:49:10.772Z,100754.13
2022-12-15T06:51:38.608Z,100756.00
2022-12-15T06:54:06.478Z,100753.25
2022-12-15T06:56:37.073Z,100752.78
2022-12-15T06:59:06.773Z,100752.66
2022-12-15T07:01:36.315Z,100753.81
2022-12-15T07:04:05.758Z,100748.50
2022-12-15T07:06:37.241Z,100750.28
2022-12-15T07:09:07.181Z,100736.50
2022-12-15T07:11:35.244Z,100749.78
2022-12-15T07:14:03.106Z,100755.09
2022-12-15T07:16:31.969Z,100753.91
2022-12-15T07:19:01.068Z,100752.34
2022-12-15T07:21:28.868Z,100757.06
2022-12-15T07:23:57.528Z,100766.31
2022-12-15T07:26:26.416Z,100758.69
2022-12-15T07:28:54.608Z,100763.34
2022-12-15T07:31:23.617Z,100769.06
2022-12-15T07:33:54.372Z,100776.19
2022-12-15T07:36:23.609Z,100769.84
2022-12-15T07:38:52.125Z,100768.22
2022-12-15T07:41:21.107Z,100772.25
2022-12-15T07:43:48.954Z,100775.41
2022-12-15T07:46:18.099Z,100780.81
2022-12-15T07:48:50.204Z,100783.09
2022-12-15T07:51:20.564Z,100778.06
2022-12-15T07:53:50.994Z,100773.25
2022-12-15T07:56:20.406Z,100778.31
2022-12-15T07:58:48.451Z,100782.16
2022-12-15T08:01:17.264Z,100789.09
2022-12-15T08:03:45.886Z,100796.47
2022-12-15T08:06:15.396Z,100792.34
2022-12-15T08:08:45.166Z,100793.28
2022-12-15T08:11:22.500Z,100802.13
2022-12-15T08:14:10.546Z,100798.34
2022-12-15T08:16:39.426Z,100799.72
2022-12-15T08:19:08.763Z,100802.84
2022-12-15T08:21:36.480Z,100806.97
2022-12-15T08:24:04.371Z,100809.69
2022-12-15T08:26:33.489Z,100804.13
2022-12-15T08:29:40.361Z,100798.53
2022-12-15T08:31:52.511Z,100801.63
2022-12-15T08:34:20.735Z,100808.56
2022-12-15T08:36:48.455Z,100812.41
2022-12-15T08:39:16.414Z,100808.28
2022-12-15T08:41:45.752Z,100820.63
2022-12-15T08:44:13.532Z,100818.09
2022-12-15T08:46:41.310Z,100828.56
2022-12-15T08:49:09.781Z,100819.94
2022-12-15T08:51:37.651Z,100825.84
2022-12-15T08:54:05.442Z,100837.47
2022-12-15T08:56:33.226Z,100834.94
2022-12-15T08:59:03.195Z,100837.47
2022-12-15T09:01:33.119Z,100836.19
2022-12-15T09:04:01.552Z,100832.34
2022-12-15T09:06:31.465Z,100839.38
2022-12-15T09:09:02.171Z,100826.56
2022-12-15T09:11:30.920Z,100826.97
2022-12-15T09:13:59.174Z,100828.16
2022-12-15T09:16:28.725Z,100827.34
2022-12-15T09:18:58.716Z,100828.00
2022-12-15T09:21:28.988Z,100830.75
2022-12-15T09:24:00.512Z,100838.06
2022-12-15T09:26:30.601Z,100843.63
2022-12-15T09:28:58.826Z,100856.09
2022-12-15T09:31:30.813Z,100853.44
2022-12-15T09:34:00.309Z,100860.78
2022-12-15T09:36:30.308Z,100855.09
2022-12-15T09:38:58.098Z,100844.97
2022-12-15T09:41:28.265Z,100850.53
2022-12-15T09:43:59.889Z,100855.28
2022-12-15T09:46:41.142Z,100857.72
2022-12-15T09:49:14.521Z,100853.50
2022-12-15T09:51:49.272Z,100867.72
2022-12-15T09:54:19.188Z,100866.94
2022-12-15T09:56:54.196Z,100870.41
2022-12-15T09:59:30.107Z,100870.00
2022-12-15T10:02:17.973Z,100875.75
2022-12-15T10:04:57.066Z,100873.81
2022-12-15T10:07:31.086Z,100881.44
2022-12-15T10:09:59.152Z,100875.19
2022-12-15T10:12:34.223Z,100880.09
2022-12-15T10:15:13.564Z,100891.19
2022-12-15T10:17:50.285Z,100887.56
2022-12-15T10:20:20.774Z,100883.63
2022-12-15T10:22:50.475Z,100886.59
2022-12-15T10:25:29.349Z,100882.44
2022-12-15T10:28:18.935Z,100876.66
2022-12-15T10:30:53.142Z,100884.34
2022-12-15T10:33:25.017Z,100889.34
2022-12-15T10:35:54.667Z,100882.34
2022-12-15T10:38:31.687Z,100883.75
2022-12-15T10:41:02.356Z,100876.63
2022-12-15T10:43:34.473Z,100883.75
2022-12-15T10:46:07.714Z,100894.00
2022-12-15T10:48:37.681Z,100897.75
2022-12-15T10:51:27.326Z,100889.94
2022-12-15T10:54:04.534Z,100889.78
2022-12-15T10:56:34.336Z,100883.91
2022-12-15T10:59:04.598Z,100878.16
2022-12-15T11:01:35.593Z,100878.59
2022-12-15T11:04:05.381Z,100876.19
2022-12-15T11:06:36.797Z,100873.78
2022-12-15T11:09:27.826Z,100864.22
2022-12-15T11:12:13.446Z,100865.88
2022-12-15T11:14:45.624Z,100869.38
2022-12-15T11:17:18.611Z,100862.47
2022-12-15T11:22:47.652Z,100862.84
2022-12-15T11:25:36.217Z,100859.81
2022-12-15T11:28:15.518Z,100861.94
2022-12-15T11:30:46.638Z,100865.22
2022-12-15T11:33:14.517Z,100861.25
2022-12-15T11:35:59.364Z,100871.81
2022-12-15T11:38:33.696Z,100869.16
2022-12-15T11:41:09.535Z,100867.13
2022-12-15T11:43:58.783Z,100863.81
2022-12-15T11:46:37.828Z,100862.72
2022-12-15T11:49:25.067Z,100863.06
2022-12-15T11:52:03.581Z,100861.13
2022-12-15T11:54:39.706Z,100866.81
2022-12-15T11:57:25.897Z,100862.25
2022-12-15T12:00:02.887Z,100861.53
2022-12-15T12:03:02.972Z,100865.19
2022-12-15T12:05:41.898Z,100874.81
2022-12-15T12:08:36.762Z,100870.38
2022-12-15T12:11:12.768Z,100874.41
2022-12-15T12:13:52.560Z,100863.69
2022-12-15T12:16:33.016Z,100867.13
2022-12-15T12:19:05.928Z,100865.41
2022-12-15T12:21:37.959Z,100856.94
2022-12-15T12:24:17.617Z,100851.69
2022-12-15T12:26:48.725Z,100853.06
2022-12-15T12:29:22.415Z,100851.34
2022-12-15T12:32:05.170Z,100849.72
2022-12-15T12:34:47.316Z,100838.69
2022-12-15T12:37:25.045Z,100842.06
2022-12-15T12:39:57.269Z,100851.94
2022-12-15T12:42:31.985Z,100841.38
2022-12-15T12:44:59.816Z,100846.03
2022-12-15T12:47:30.774Z,100847.91
2022-12-15T12:50:02.259Z,100846.00
2022-12-15T12:52:32.937Z,100845.00
2022-12-15T12:55:09.510Z,100833.44
2022-12-15T12:57:42.093Z,100838.91
2022-12-15T13:00:22.082Z,100830.00
2022-12-15T13:03:10.194Z,100826.19
2022-12-15T13:05:39.852Z,100815.03
2022-12-15T13:08:28.984Z,100813.97
2022-12-15T13:11:18.142Z,100807.03
2022-12-15T13:13:51.255Z,100814.72
2022-12-15T13:16:25.234Z,100815.44
2022-12-15T13:18:58.384Z,100811.19
2022-12-15T13:21:55.296Z,100813.81
2022-12-15T13:24:33.992Z,100806.50
2022-12-15T13:27:15.366Z,100801.50
2022-12-15T13:30:02.162Z,100804.19
2022-12-15T13:32:35.374Z,100801.88
2022-12-15T13:35:22.588Z,100798.00
2022-12-15T13:37:53.167Z,100793.63
2022-12-15T13:40:51.802Z,100788.47
2022-12-15T13:43:41.259Z,100790.25
2022-12-15T13:46:17.510Z,100796.97
2022-12-15T13:48:49.281Z,100792.63
2022-12-15T13:51:30.104Z,100802.88
2022-12-15T13:54:03.012Z,100794.34
2022-12-15T13:56:51.189Z,100796.00
2022-12-15T13:59:39.252Z,100789.16
2022-12-15T14:02:24.741Z,100792.34
2022-12-15T14:05:15.206Z,100796.03
2022-12-15T14:07:52.618Z,100805.63
2022-12-15T14:10:24.901Z,100798.81
2022-12-15T14:12:54.210Z,100796.25
2022-12-15T14:15:28.189Z,100786.72
2022-12-15T14:17:59.512Z,100789.69
2022-12-15T14:20:27.910Z,100782.25
2022-12-15T14:22:55.641Z,100779.13
2022-12-15T14:25:25.920Z,100784.56
2022-12-15T14:27:53.670Z,100783.06
2022-12-15T14:30:26.606Z,100777.28
2022-12-15T14:32:58.781Z,100778.75
2022-12-15T14:35:31.409Z,100763.00
2022-12-15T14:38:02.016Z,100763.88
2022-12-15T14:40:30.857Z,100767.75
2022-12-15T14:42:59.031Z,100776.22
2022-12-15T14:45:29.467Z,100775.56
2022-12-15T14:50:51.290Z,100770.88
2022-12-15T14:53:22.493Z,100770.97
2022-12-15T14:55:51.587Z,100767.53
2022-12-15T14:58:33.743Z,100761.38
2022-12-15T15:01:03.317Z,100756.81
2022-12-15T15:03:04.702Z,100862.75
2022-12-15T15:03:38.977Z,100770.63
2022-12-15T15:06:18.564Z,100762.66
2022-12-15T15:08:48.924Z,100763.84
2022-12-15T15:11:29.296Z,100767.34
2022-12-15T15:13:59.219Z,100763.13
2022-12-15T15:16:27.503Z,100751.69
2022-12-15T15:18:58.102Z,100765.66
2022-12-15T15:21:28.537Z,100755.28
2022-12-15T15:24:01.479Z,100759.53
2022-12-15T15:26:30.924Z,100755.69
2022-12-15T15:28:59.511Z,100748.44
2022-12-15T15:31:36.678Z,100754.25
2022-12-15T15:34:09.879Z,100753.13
2022-12-15T15:36:39.905Z,100747.38
2022-12-15T15:39:15.154Z,100750.22
2022-12-15T15:41:43.012Z,100746.91
2022-12-15T15:44:13.859Z,100751.53
2022-12-15T15:46:47.687Z,100751.53
2022-12-15T15:49:19.039Z,100752.72
2022-12-15T15:51:46.834Z,100752.72
2022-12-15T15:54:17.475Z,100749.28
2022-12-15T15:56:45.295Z,100766.88
2022-12-15T15:59:16.298Z,100756.56
2022-12-15T16:01:44.277Z,100764.97
2022-12-15T16:04:12.241Z,100761.88
2022-12-15T16:06:47.048Z,100766.09
2022-12-15T16:09:16.786Z,100771.03
2022-12-15T16:11:45.672Z,100770.28
2022-12-15T16:14:14.699Z,100757.22
2022-12-15T16:16:42.801Z,100768.66
2022-12-15T16:19:11.984Z,100769.44
2022-12-15T16:21:41.863Z,100772.88
2022-12-15T16:24:14.563Z,100773.69
2022-12-15T16:26:47.210Z,100767.16
2022-12-15T16:29:17.045Z,100767.59
2022-12-15T16:31:45.827Z,100773.72
2022-12-15T16:34:14.091Z,100769.50
2022-12-15T16:36:43.701Z,100766.09
2022-12-15T16:39:25.321Z,100760.31
2022-12-15T16:41:54.693Z,100763.78
2022-12-15T16:44:23.086Z,100771.06
2022-12-15T16:46:51.331Z,100766.06
2022-12-15T16:49:19.176Z,100765.31
2022-12-15T16:51:50.338Z,100764.91
2022-12-15T16:54:20.970Z,100767.94
2022-12-15T16:56:48.887Z,100764.50
2022-12-15T16:59:34.690Z,100764.91
2022-12-15T17:02:17.804Z,100769.84
2022-12-15T17:04:45.666Z,100766.41
2022-12-15T17:07:20.114Z,100769.41
2022-12-15T17:09:49.486Z,100770.13
2022-12-15T17:12:18.689Z,100776.19
2022-12-15T17:14:46.574Z,100766.94
2022-12-15T17:17:15.810Z,100761.13
2022-12-15T17:19:57.772Z,100765.25
2022-12-15T17:22:33.366Z,100773.22
2022-12-15T17:25:01.523Z,100766.97
2022-12-15T17:27:30.643Z,100772.28
2022-12-15T17:30:00.515Z,100770.41
2022-12-15T17:32:28.342Z,100765.13
2022-12-15T17:34:56.066Z,100777.38
2022-12-15T17:37:26.160Z,100781.94
2022-12-15T17:39:58.359Z,100774.78
2022-12-15T17:42:26.179Z,100777.09
2022-12-15T17:44:54.017Z,100787.69
2022-12-15T17:47:24.189Z,100781.09
2022-12-15T17:49:52.023Z,100787.97
2022-12-15T17:52:29.904Z,100792.16
2022-12-15T17:54:59.010Z,100795.97
2022-12-15T17:57:26.963Z,100793.72
2022-12-15T17:59:54.976Z,100793.38
2022-12-15T18:02:22.803Z,100793.84
2022-12-15T18:04:50.686Z,100793.19
2022-12-15T18:07:20.349Z,100796.00
2022-12-15T18:09:49.404Z,100797.94
2022-12-15T18:12:23.312Z,100803.75
2022-12-15T18:14:51.165Z,100806.84
2022-12-15T18:17:18.983Z,100801.56
2022-12-15T18:19:46.769Z,100809.59
2022-12-15T18:22:18.116Z,100803.13
2022-12-15T18:24:46.164Z,100807.00
2022-12-15T18:27:23.652Z,100813.13
2022-12-15T18:29:51.759Z,100816.19
2022-12-15T18:32:21.400Z,100814.31
2022-12-15T18:34:49.337Z,100814.31
2022-12-15T18:37:18.480Z,100810.50
2022-12-15T18:39:46.679Z,100811.25
2022-12-15T18:42:16.093Z,100825.81
2022-12-15T18:44:49.066Z,100818.56
2022-12-15T18:47:18.579Z,100824.25
2022-12-15T18:49:46.743Z,100813.09
2022-12-15T18:52:18.282Z,100819.25
2022-12-15T18:54:47.617Z,100810.44
2022-12-15T18:57:27.950Z,100816.56
2022-12-15T18:59:59.845Z,100824.63
2022-12-15T19:02:28.399Z,100826.53
2022-12-15T19:04:56.305Z,100823.84
2022-12-15T19:07:24.133Z,100833.81
2022-12-15T19:09:52.040Z,100838.41
2022-12-15T19:12:19.892Z,100830.38
2022-12-15T19:14:49.290Z,100843.69
2022-12-15T19:17:37.397Z,100840.63
2022-12-15T19:20:25.231Z,100846.00
2022-12-15T19:22:53.646Z,100847.91
2022-12-15T19:25:26.256Z,100858.63
2022-12-15T19:27:59.137Z,100861.34
2022-12-15T19:30:28.762Z,100864.41
2022-12-15T19:32:58.264Z,100857.56
2022-12-15T19:35:27.262Z,100864.47
2022-12-15T19:37:58.009Z,100857.59
2022-12-15T19:40:29.340Z,100861.81
2022-12-15T19:42:58.253Z,100863.72
2022-12-15T19:45:28.510Z,100853.00
2022-12-15T19:47:58.009Z,100851.81
2022-12-15T19:50:28.609Z,100859.06
2022-12-15T19:52:59.008Z,100850.97
2022-12-15T19:55:29.814Z,100842.91
2022-12-15T19:57:57.573Z,100859.03
2022-12-15T20:00:26.913Z,100856.31
2022-12-15T20:02:57.017Z,100868.16
2022-12-15T20:05:26.067Z,100867.41
2022-12-15T20:07:54.878Z,100866.22
2022-12-15T20:10:31.400Z,100875.78
2022-12-15T20:13:01.077Z,100865.06
2022-12-15T20:15:29.156Z,100862.41
2022-12-15T20:17:58.287Z,100869.31
2022-12-15T20:20:28.935Z,100865.88
2022-12-15T20:22:59.799Z,100867.03
2022-12-15T20:25:30.705Z,100873.53
2022-12-15T20:28:00.221Z,100879.66
2022-12-15T20:30:32.430Z,100870.06
2022-12-15T20:33:02.132Z,100876.22
2022-12-15T20:35:32.958Z,100871.63
2022-12-15T20:38:01.502Z,100868.97
2022-12-15T20:40:31.252Z,100870.50
2022-12-15T20:42:58.978Z,100873.56
2022-12-15T20:45:28.102Z,100882.38
2022-12-15T20:47:57.063Z,100881.97
2022-12-15T20:50:29.411Z,100896.53
2022-12-15T20:52:57.333Z,100891.56
2022-12-15T20:55:25.113Z,100893.84
2022-12-15T20:57:52.927Z,100888.50
2022-12-15T21:00:21.860Z,100895.41
2022-12-15T21:02:52.053Z,100889.28
2022-12-15T21:05:25.371Z,100891.22
2022-12-15T21:07:55.130Z,100886.59
2022-12-15T21:10:23.031Z,100884.69
2022-12-15T21:12:51.724Z,100878.56
2022-12-15T21:15:21.902Z,100880.13
2022-12-15T21:17:57.276Z,100878.97
2022-12-15T21:20:39.709Z,100875.91
2022-12-15T21:23:21.267Z,100877.44
2022-12-15T21:25:50.927Z,100876.69
2022-12-15T21:28:19.727Z,100879.72
2022-12-15T21:30:48.035Z,100882.00
2022-12-15T21:33:16.042Z,100887.75
2022-12-15T21:35:46.351Z,100875.50
2022-12-15T21:38:28.319Z,100879.69
2022-12-15T21:40:59.801Z,100889.66
2022-12-15T21:43:28.327Z,100894.66
2022-12-15T21:45:56.255Z,100891.97
2022-12-15T21:48:41.514Z,100891.97
2022-12-15T21:51:15.032Z,100894.97
2022-12-15T21:53:46.433Z,100897.28
2022-12-15T21:56:17.293Z,100894.25
2022-12-15T21:58:45.957Z,100887.38
2022-12-15T22:01:15.555Z,100879.75
2022-12-15T22:03:45.856Z,100892.03
2022-12-15T22:06:19.319Z,100896.63
2022-12-15T22:08:48.874Z,100898.94
2022-12-15T22:11:21.768Z,100905.06
2022-12-15T22:13:52.177Z,100903.56
2022-12-15T22:16:20.560Z,100907.78
2022-12-15T22:18:51.146Z,100899.72
2022-12-15T22:21:19.812Z,100910.84
2022-12-15T22:23:48.967Z,100902.44
2022-12-15T22:26:22.661Z,100905.16
2022-12-15T22:28:51.050Z,100903.97
2022-12-15T22:31:19.598Z,100908.22
2022-12-15T22:33:47.384Z,100906.28
2022-12-15T22:36:15.139Z,100914.69
2022-12-15T22:38:44.950Z,100906.63
2022-12-15T22:41:20.342Z,100913.56
2022-12-15T22:43:51.810Z,100913.56
2022-12-15T22:46:22.285Z,100911.31
2022-12-15T22:48:52.169Z,100914.00
2022-12-15T22:51:20.842Z,100922.44
2022-12-15T22:53:48.578Z,100923.97
2022-12-15T22:56:25.624Z,100911.34
2022-12-15T22:58:57.776Z,100916.31
2022-12-15T23:01:26.764Z,100916.31
2022-12-15T23:03:55.643Z,100915.16
2022-12-15T23:06:24.095Z,100907.13
2022-12-15T23:08:55.883Z,100897.16
2022-12-15T23:11:41.275Z,100895.97
2022-12-15T23:14:11.837Z,100904.00
2022-12-15T23:16:39.580Z,100903.97
2022-12-15T23:19:08.629Z,100901.69
2022-12-15T23:21:37.871Z,100902.06
2022-12-15T23:24:05.861Z,100908.56
2022-12-15T23:26:34.953Z,100905.88
2022-12-15T23:29:02.696Z,100912.41
2022-12-15T23:31:30.605Z,100906.28
2022-12-15T23:33:58.390Z,100903.97
2022-12-15T23:36:26.211Z,100908.16
2022-12-15T23:38:55.130Z,100905.84
2022-12-15T23:41:22.922Z,100912.69
2022-12-15T23:43:52.020Z,100915.31
2022-12-15T23:46:19.875Z,100917.63
2022-12-15T23:48:47.845Z,100915.69
2022-12-15T23:51:17.651Z,100922.94
2022-12-15T23:53:48.694Z,100921.78
2022-12-15T23:56:18.410Z,100923.66
2022-12-15T23:58:48.972Z,100930.47
